sensor_id;sensor_type;location;lat;lon;timestamp;P1;durP1;ratioP1;P2;durP2;ratioP2
18082;SDS011;9168;51.194;6.840;2022-08-02T00:01:52;10.93;;;4.18;;
18082;SDS011;9168;51.194;6.840;2022-08-02T00:04:19;8.82;;;3.92;;
18082;SDS011;9168;51.194;6.840;2022-08-02T00:06:46;10.55;;;4.15;;
18082;SDS011;9168;51.194;6.840;2022-08-02T00:09:13;8.68;;;3.83;;
18082;SDS011;9168;51.194;6.840;2022-08-02T00:11:41;9.60;;;4.00;;
18082;SDS011;9168;51.194;6.840;2022-08-02T00:14:08;13.10;;;3.63;;
18082;SDS011;9168;51.194;6.840;2022-08-02T00:16:35;8.10;;;4.10;;
18082;SDS011;9168;51.194;6.840;2022-08-02T00:19:02;10.93;;;4.35;;
18082;SDS011;9168;51.194;6.840;2022-08-02T00:21:29;9.32;;;3.47;;
18082;SDS011;9168;51.194;6.840;2022-08-02T00:23:56;6.38;;;3.65;;
18082;SDS011;9168;51.194;6.840;2022-08-02T00:26:23;14.13;;;3.20;;
18082;SDS011;9168;51.194;6.840;2022-08-02T00:28:51;9.88;;;3.15;;
18082;SDS011;9168;51.194;6.840;2022-08-02T00:31:18;8.88;;;3.22;;
18082;SDS011;9168;51.194;6.840;2022-08-02T00:33:45;11.88;;;3.70;;
18082;SDS011;9168;51.194;6.840;2022-08-02T00:36:12;10.77;;;3.78;;
18082;SDS011;9168;51.194;6.840;2022-08-02T00:38:39;10.95;;;3.53;;
18082;SDS011;9168;51.194;6.840;2022-08-02T00:41:10;6.20;;;3.35;;
18082;SDS011;9168;51.194;6.840;2022-08-02T00:43:38;8.80;;;3.70;;
18082;SDS011;9168;51.194;6.840;2022-08-02T00:46:07;8.25;;;3.55;;
18082;SDS011;9168;51.194;6.840;2022-08-02T00:48:34;11.18;;;3.38;;
18082;SDS011;9168;51.194;6.840;2022-08-02T00:51:01;15.27;;;3.85;;
18082;SDS011;9168;51.194;6.840;2022-08-02T00:53:28;15.40;;;3.78;;
18082;SDS011;9168;51.194;6.840;2022-08-02T00:55:55;13.90;;;3.58;;
18082;SDS011;9168;51.194;6.840;2022-08-02T00:58:22;15.60;;;3.47;;
18082;SDS011;9168;51.194;6.840;2022-08-02T01:00:49;8.98;;;3.88;;
18082;SDS011;9168;51.194;6.840;2022-08-02T01:03:17;16.52;;;4.50;;
18082;SDS011;9168;51.194;6.840;2022-08-02T01:05:44;13.40;;;4.72;;
18082;SDS011;9168;51.194;6.840;2022-08-02T01:08:11;10.75;;;4.28;;
18082;SDS011;9168;51.194;6.840;2022-08-02T01:10:38;16.17;;;4.35;;
18082;SDS011;9168;51.194;6.840;2022-08-02T01:13:05;9.48;;;3.63;;
18082;SDS011;9168;51.194;6.840;2022-08-02T01:15:32;14.63;;;3.70;;
18082;SDS011;9168;51.194;6.840;2022-08-02T01:18:04;10.93;;;3.42;;
18082;SDS011;9168;51.194;6.840;2022-08-02T01:20:48;23.63;;;3.85;;
18082;SDS011;9168;51.194;6.840;2022-08-02T01:23:36;15.05;;;3.97;;
18082;SDS011;9168;51.194;6.840;2022-08-02T01:26:23;10.02;;;3.58;;
18082;SDS011;9168;51.194;6.840;2022-08-02T01:29:01;11.57;;;3.50;;
18082;SDS011;9168;51.194;6.840;2022-08-02T01:31:33;13.98;;;3.38;;
18082;SDS011;9168;51.194;6.840;2022-08-02T01:34:05;11.75;;;3.22;;
18082;SDS011;9168;51.194;6.840;2022-08-02T01:36:39;5.53;;;2.78;;
18082;SDS011;9168;51.194;6.840;2022-08-02T01:39:10;8.68;;;3.05;;
18082;SDS011;9168;51.194;6.840;2022-08-02T01:41:40;8.07;;;3.08;;
18082;SDS011;9168;51.194;6.840;2022-08-02T01:44:10;14.80;;;3.42;;
18082;SDS011;9168;51.194;6.840;2022-08-02T01:46:40;8.18;;;3.10;;
18082;SDS011;9168;51.194;6.840;2022-08-02T01:49:11;9.00;;;3.15;;
18082;SDS011;9168;51.194;6.840;2022-08-02T01:51:42;6.65;;;3.22;;
18082;SDS011;9168;51.194;6.840;2022-08-02T01:54:30;10.85;;;3.42;;
18082;SDS011;9168;51.194;6.840;2022-08-02T01:56:59;10.98;;;3.42;;
18082;SDS011;9168;51.194;6.840;2022-08-02T01:59:31;18.73;;;3.80;;
18082;SDS011;9168;51.194;6.840;2022-08-02T02:02:00;21.45;;;3.80;;
18082;SDS011;9168;51.194;6.840;2022-08-02T02:04:28;13.63;;;3.80;;
18082;SDS011;9168;51.194;6.840;2022-08-02T02:06:57;12.20;;;3.28;;
18082;SDS011;9168;51.194;6.840;2022-08-02T02:09:26;13.95;;;3.85;;
18082;SDS011;9168;51.194;6.840;2022-08-02T02:11:56;13.95;;;3.85;;
18082;SDS011;9168;51.194;6.840;2022-08-02T02:14:25;8.85;;;3.60;;
18082;SDS011;9168;51.194;6.840;2022-08-02T02:16:55;13.57;;;3.78;;
18082;SDS011;9168;51.194;6.840;2022-08-02T02:19:24;16.52;;;4.57;;
18082;SDS011;9168;51.194;6.840;2022-08-02T02:21:53;14.13;;;4.43;;
18082;SDS011;9168;51.194;6.840;2022-08-02T02:24:20;8.95;;;3.97;;
18082;SDS011;9168;51.194;6.840;2022-08-02T02:26:47;13.25;;;4.18;;
18082;SDS011;9168;51.194;6.840;2022-08-02T02:29:15;12.25;;;3.92;;
18082;SDS011;9168;51.194;6.840;2022-08-02T02:31:45;13.30;;;4.13;;
18082;SDS011;9168;51.194;6.840;2022-08-02T02:34:17;11.05;;;4.13;;
18082;SDS011;9168;51.194;6.840;2022-08-02T02:36:51;9.98;;;3.90;;
18082;SDS011;9168;51.194;6.840;2022-08-02T02:39:19;15.65;;;3.67;;
18082;SDS011;9168;51.194;6.840;2022-08-02T02:41:50;13.93;;;4.15;;
18082;SDS011;9168;51.194;6.840;2022-08-02T02:44:20;10.27;;;4.05;;
18082;SDS011;9168;51.194;6.840;2022-08-02T02:46:49;13.52;;;3.72;;
18082;SDS011;9168;51.194;6.840;2022-08-02T02:49:20;13.25;;;3.92;;
18082;SDS011;9168;51.194;6.840;2022-08-02T02:51:49;15.48;;;3.75;;
18082;SDS011;9168;51.194;6.840;2022-08-02T02:54:17;7.93;;;3.47;;
18082;SDS011;9168;51.194;6.840;2022-08-02T02:56:45;14.00;;;4.15;;
18082;SDS011;9168;51.194;6.840;2022-08-02T02:59:13;15.30;;;4.07;;
18082;SDS011;9168;51.194;6.840;2022-08-02T03:01:41;11.57;;;3.88;;
18082;SDS011;9168;51.194;6.840;2022-08-02T03:04:09;11.55;;;3.90;;
18082;SDS011;9168;51.194;6.840;2022-08-02T03:06:38;9.50;;;3.80;;
18082;SDS011;9168;51.194;6.840;2022-08-02T03:09:06;15.38;;;4.00;;
18082;SDS011;9168;51.194;6.840;2022-08-02T03:11:35;12.95;;;3.92;;
18082;SDS011;9168;51.194;6.840;2022-08-02T03:14:04;13.30;;;3.95;;
18082;SDS011;9168;51.194;6.840;2022-08-02T03:16:40;11.45;;;3.83;;
18082;SDS011;9168;51.194;6.840;2022-08-02T03:19:08;15.35;;;4.45;;
18082;SDS011;9168;51.194;6.840;2022-08-02T03:21:35;17.23;;;4.07;;
18082;SDS011;9168;51.194;6.840;2022-08-02T03:24:03;20.48;;;4.28;;
18082;SDS011;9168;51.194;6.840;2022-08-02T03:26:31;10.70;;;4.03;;
18082;SDS011;9168;51.194;6.840;2022-08-02T03:28:58;14.70;;;4.55;;
18082;SDS011;9168;51.194;6.840;2022-08-02T03:31:24;12.70;;;5.07;;
18082;SDS011;9168;51.194;6.840;2022-08-02T03:33:52;10.60;;;4.22;;
18082;SDS011;9168;51.194;6.840;2022-08-02T03:36:20;9.95;;;4.82;;
18082;SDS011;9168;51.194;6.840;2022-08-02T03:38:49;14.43;;;4.28;;
18082;SDS011;9168;51.194;6.840;2022-08-02T03:41:18;10.23;;;4.70;;
18082;SDS011;9168;51.194;6.840;2022-08-02T03:43:48;10.10;;;4.90;;
18082;SDS011;9168;51.194;6.840;2022-08-02T03:46:16;9.38;;;4.57;;
18082;SDS011;9168;51.194;6.840;2022-08-02T03:48:45;7.43;;;4.43;;
18082;SDS011;9168;51.194;6.840;2022-08-02T03:51:12;13.32;;;5.40;;
18082;SDS011;9168;51.194;6.840;2022-08-02T03:53:40;14.60;;;5.13;;
18082;SDS011;9168;51.194;6.840;2022-08-02T03:56:08;11.43;;;5.30;;
18082;SDS011;9168;51.194;6.840;2022-08-02T03:58:36;12.23;;;5.65;;
18082;SDS011;9168;51.194;6.840;2022-08-02T04:01:03;12.52;;;5.07;;
18082;SDS011;9168;51.194;6.840;2022-08-02T04:03:30;14.10;;;5.97;;
18082;SDS011;9168;51.194;6.840;2022-08-02T04:05:57;8.55;;;5.18;;
18082;SDS011;9168;51.194;6.840;2022-08-02T04:08:24;12.55;;;5.45;;
18082;SDS011;9168;51.194;6.840;2022-08-02T04:10:51;11.73;;;5.43;;
18082;SDS011;9168;51.194;6.840;2022-08-02T04:13:37;13.52;;;5.60;;
18082;SDS011;9168;51.194;6.840;2022-08-02T04:16:07;13.27;;;5.85;;
18082;SDS011;9168;51.194;6.840;2022-08-02T04:18:42;10.70;;;5.47;;
18082;SDS011;9168;51.194;6.840;2022-08-02T04:21:16;9.02;;;4.97;;
18082;SDS011;9168;51.194;6.840;2022-08-02T04:23:44;17.17;;;6.60;;
18082;SDS011;9168;51.194;6.840;2022-08-02T04:26:13;10.50;;;6.05;;
18082;SDS011;9168;51.194;6.840;2022-08-02T04:28:42;13.85;;;6.40;;
18082;SDS011;9168;51.194;6.840;2022-08-02T04:31:09;13.65;;;6.80;;
18082;SDS011;9168;51.194;6.840;2022-08-02T04:33:37;17.10;;;6.50;;
18082;SDS011;9168;51.194;6.840;2022-08-02T04:36:05;13.07;;;6.20;;
18082;SDS011;9168;51.194;6.840;2022-08-02T04:38:33;20.25;;;6.57;;
18082;SDS011;9168;51.194;6.840;2022-08-02T04:41:00;14.35;;;6.82;;
18082;SDS011;9168;51.194;6.840;2022-08-02T04:43:26;14.52;;;6.75;;
18082;SDS011;9168;51.194;6.840;2022-08-02T04:45:55;16.17;;;7.63;;
18082;SDS011;9168;51.194;6.840;2022-08-02T04:48:22;17.52;;;7.43;;
18082;SDS011;9168;51.194;6.840;2022-08-02T04:50:49;13.23;;;7.15;;
18082;SDS011;9168;51.194;6.840;2022-08-02T04:53:16;13.35;;;6.75;;
18082;SDS011;9168;51.194;6.840;2022-08-02T04:55:46;14.98;;;7.93;;
18082;SDS011;9168;51.194;6.840;2022-08-02T04:58:13;12.23;;;7.10;;
18082;SDS011;9168;51.194;6.840;2022-08-02T05:00:40;17.73;;;7.50;;
18082;SDS011;9168;51.194;6.840;2022-08-02T05:03:08;11.55;;;7.18;;
18082;SDS011;9168;51.194;6.840;2022-08-02T05:05:37;12.65;;;7.03;;
18082;SDS011;9168;51.194;6.840;2022-08-02T05:08:04;12.98;;;6.70;;
18082;SDS011;9168;51.194;6.840;2022-08-02T05:10:31;10.90;;;6.85;;
18082;SDS011;9168;51.194;6.840;2022-08-02T05:12:58;12.07;;;7.30;;
18082;SDS011;9168;51.194;6.840;2022-08-02T05:15:25;14.77;;;7.10;;
18082;SDS011;9168;51.194;6.840;2022-08-02T05:17:52;14.82;;;6.80;;
18082;SDS011;9168;51.194;6.840;2022-08-02T05:20:20;13.60;;;6.70;;
18082;SDS011;9168;51.194;6.840;2022-08-02T05:22:47;13.35;;;7.45;;
18082;SDS011;9168;51.194;6.840;2022-08-02T05:25:14;19.30;;;7.38;;
18082;SDS011;9168;51.194;6.840;2022-08-02T05:27:41;15.18;;;7.63;;
18082;SDS011;9168;51.194;6.840;2022-08-02T05:30:08;14.93;;;7.85;;
18082;SDS011;9168;51.194;6.840;2022-08-02T05:32:41;11.77;;;7.38;;
18082;SDS011;9168;51.194;6.840;2022-08-02T05:35:09;15.65;;;7.57;;
18082;SDS011;9168;51.194;6.840;2022-08-02T05:37:37;14.00;;;7.57;;
18082;SDS011;9168;51.194;6.840;2022-08-02T05:40:04;14.82;;;7.22;;
18082;SDS011;9168;51.194;6.840;2022-08-02T05:42:32;16.25;;;7.68;;
18082;SDS011;9168;51.194;6.840;2022-08-02T05:44:59;16.20;;;8.55;;
18082;SDS011;9168;51.194;6.840;2022-08-02T05:47:26;19.35;;;8.32;;
18082;SDS011;9168;51.194;6.840;2022-08-02T05:49:53;20.30;;;7.60;;
18082;SDS011;9168;51.194;6.840;2022-08-02T05:52:20;13.57;;;7.57;;
18082;SDS011;9168;51.194;6.840;2022-08-02T05:54:56;15.40;;;6.90;;
18082;SDS011;9168;51.194;6.840;2022-08-02T05:57:33;14.88;;;7.82;;
18082;SDS011;9168;51.194;6.840;2022-08-02T06:00:07;14.05;;;8.40;;
18082;SDS011;9168;51.194;6.840;2022-08-02T06:02:41;13.45;;;7.50;;
18082;SDS011;9168;51.194;6.840;2022-08-02T06:05:25;18.48;;;8.32;;
18082;SDS011;9168;51.194;6.840;2022-08-02T06:07:54;12.93;;;7.10;;
18082;SDS011;9168;51.194;6.840;2022-08-02T06:10:26;16.05;;;7.78;;
18082;SDS011;9168;51.194;6.840;2022-08-02T06:12:55;13.63;;;7.60;;
18082;SDS011;9168;51.194;6.840;2022-08-02T06:15:30;19.48;;;7.40;;
18082;SDS011;9168;51.194;6.840;2022-08-02T06:17:59;15.32;;;7.28;;
18082;SDS011;9168;51.194;6.840;2022-08-02T06:20:28;15.10;;;6.72;;
18082;SDS011;9168;51.194;6.840;2022-08-02T06:22:59;13.95;;;8.10;;
18082;SDS011;9168;51.194;6.840;2022-08-02T06:25:29;16.45;;;7.88;;
18082;SDS011;9168;51.194;6.840;2022-08-02T06:27:56;14.20;;;7.10;;
18082;SDS011;9168;51.194;6.840;2022-08-02T06:30:24;14.57;;;7.93;;
18082;SDS011;9168;51.194;6.840;2022-08-02T06:32:51;12.20;;;6.47;;
18082;SDS011;9168;51.194;6.840;2022-08-02T06:35:19;16.35;;;7.35;;
18082;SDS011;9168;51.194;6.840;2022-08-02T06:37:47;20.00;;;7.45;;
18082;SDS011;9168;51.194;6.840;2022-08-02T06:40:17;19.45;;;8.07;;
18082;SDS011;9168;51.194;6.840;2022-08-02T06:42:55;13.88;;;7.45;;
18082;SDS011;9168;51.194;6.840;2022-08-02T06:45:31;20.85;;;8.60;;
18082;SDS011;9168;51.194;6.840;2022-08-02T06:47:58;18.42;;;7.80;;
18082;SDS011;9168;51.194;6.840;2022-08-02T06:50:25;17.52;;;7.95;;
18082;SDS011;9168;51.194;6.840;2022-08-02T06:52:52;16.35;;;7.35;;
18082;SDS011;9168;51.194;6.840;2022-08-02T06:55:19;17.52;;;7.05;;
18082;SDS011;9168;51.194;6.840;2022-08-02T06:57:46;13.07;;;6.65;;
18082;SDS011;9168;51.194;6.840;2022-08-02T07:00:14;16.73;;;6.25;;
18082;SDS011;9168;51.194;6.840;2022-08-02T07:02:41;11.48;;;6.38;;
18082;SDS011;9168;51.194;6.840;2022-08-02T07:05:08;15.57;;;6.93;;
18082;SDS011;9168;51.194;6.840;2022-08-02T07:07:35;17.27;;;6.55;;
18082;SDS011;9168;51.194;6.840;2022-08-02T07:10:02;14.63;;;6.18;;
18082;SDS011;9168;51.194;6.840;2022-08-02T07:12:31;13.98;;;5.78;;
18082;SDS011;9168;51.194;6.840;2022-08-02T07:14:59;8.50;;;5.45;;
18082;SDS011;9168;51.194;6.840;2022-08-02T07:17:29;13.45;;;6.10;;
18082;SDS011;9168;51.194;6.840;2022-08-02T07:19:56;22.35;;;6.68;;
18082;SDS011;9168;51.194;6.840;2022-08-02T07:22:23;22.80;;;6.13;;
18082;SDS011;9168;51.194;6.840;2022-08-02T07:24:51;13.50;;;5.32;;
18082;SDS011;9168;51.194;6.840;2022-08-02T07:27:19;18.38;;;6.10;;
18082;SDS011;9168;51.194;6.840;2022-08-02T07:29:46;13.43;;;6.10;;
18082;SDS011;9168;51.194;6.840;2022-08-02T07:32:14;13.13;;;5.90;;
18082;SDS011;9168;51.194;6.840;2022-08-02T07:34:42;16.10;;;5.82;;
18082;SDS011;9168;51.194;6.840;2022-08-02T07:37:09;17.90;;;5.80;;
18082;SDS011;9168;51.194;6.840;2022-08-02T07:39:36;16.13;;;4.85;;
18082;SDS011;9168;51.194;6.840;2022-08-02T07:42:03;13.73;;;5.80;;
18082;SDS011;9168;51.194;6.840;2022-08-02T07:44:31;17.60;;;5.50;;
18082;SDS011;9168;51.194;6.840;2022-08-02T07:46:59;11.50;;;5.70;;
18082;SDS011;9168;51.194;6.840;2022-08-02T07:49:26;18.98;;;5.28;;
18082;SDS011;9168;51.194;6.840;2022-08-02T07:51:54;10.13;;;3.88;;
18082;SDS011;9168;51.194;6.840;2022-08-02T07:54:21;16.67;;;5.10;;
18082;SDS011;9168;51.194;6.840;2022-08-02T07:56:49;23.38;;;5.70;;
18082;SDS011;9168;51.194;6.840;2022-08-02T07:59:18;9.35;;;4.50;;
18082;SDS011;9168;51.194;6.840;2022-08-02T08:01:45;13.27;;;4.90;;
18082;SDS011;9168;51.194;6.840;2022-08-02T08:04:13;13.60;;;4.78;;
18082;SDS011;9168;51.194;6.840;2022-08-02T08:06:40;10.63;;;5.00;;
18082;SDS011;9168;51.194;6.840;2022-08-02T08:09:08;19.17;;;4.88;;
18082;SDS011;9168;51.194;6.840;2022-08-02T08:11:35;9.30;;;4.20;;
18082;SDS011;9168;51.194;6.840;2022-08-02T08:14:03;12.70;;;4.55;;
18082;SDS011;9168;51.194;6.840;2022-08-02T08:16:30;8.15;;;4.32;;
18082;SDS011;9168;51.194;6.840;2022-08-02T08:18:57;14.23;;;5.25;;
18082;SDS011;9168;51.194;6.840;2022-08-02T08:21:24;9.77;;;4.28;;
18082;SDS011;9168;51.194;6.840;2022-08-02T08:23:53;10.32;;;4.45;;
18082;SDS011;9168;51.194;6.840;2022-08-02T08:26:22;12.25;;;4.68;;
18082;SDS011;9168;51.194;6.840;2022-08-02T08:28:50;12.38;;;4.95;;
18082;SDS011;9168;51.194;6.840;2022-08-02T08:31:17;12.55;;;4.70;;
18082;SDS011;9168;51.194;6.840;2022-08-02T08:33:44;11.93;;;4.70;;
18082;SDS011;9168;51.194;6.840;2022-08-02T08:36:11;11.15;;;5.13;;
18082;SDS011;9168;51.194;6.840;2022-08-02T08:38:38;11.85;;;4.15;;
18082;SDS011;9168;51.194;6.840;2022-08-02T08:41:04;10.77;;;3.75;;
18082;SDS011;9168;51.194;6.840;2022-08-02T08:43:33;11.30;;;4.32;;
18082;SDS011;9168;51.194;6.840;2022-08-02T08:46:00;8.25;;;4.65;;
18082;SDS011;9168;51.194;6.840;2022-08-02T08:48:26;9.70;;;4.07;;
18082;SDS011;9168;51.194;6.840;2022-08-02T08:51:00;9.70;;;3.85;;
18082;SDS011;9168;51.194;6.840;2022-08-02T08:53:31;11.40;;;3.63;;
18082;SDS011;9168;51.194;6.840;2022-08-02T08:56:05;7.70;;;3.75;;
18082;SDS011;9168;51.194;6.840;2022-08-02T08:58:34;11.68;;;3.90;;
18082;SDS011;9168;51.194;6.840;2022-08-02T09:01:01;20.30;;;4.72;;
18082;SDS011;9168;51.194;6.840;2022-08-02T09:03:28;11.43;;;4.22;;
18082;SDS011;9168;51.194;6.840;2022-08-02T09:05:56;13.82;;;4.20;;
18082;SDS011;9168;51.194;6.840;2022-08-02T09:08:23;11.90;;;4.05;;
18082;SDS011;9168;51.194;6.840;2022-08-02T09:10:50;12.63;;;4.45;;
18082;SDS011;9168;51.194;6.840;2022-08-02T09:13:19;16.40;;;4.30;;
18082;SDS011;9168;51.194;6.840;2022-08-02T09:15:53;13.82;;;4.50;;
18082;SDS011;9168;51.194;6.840;2022-08-02T09:18:28;7.82;;;3.55;;
18082;SDS011;9168;51.194;6.840;2022-08-02T09:20:56;7.03;;;3.40;;
18082;SDS011;9168;51.194;6.840;2022-08-02T09:23:24;9.90;;;3.47;;
18082;SDS011;9168;51.194;6.840;2022-08-02T09:26:00;7.07;;;3.60;;
18082;SDS011;9168;51.194;6.840;2022-08-02T09:28:29;8.88;;;3.30;;
18082;SDS011;9168;51.194;6.840;2022-08-02T09:31:03;8.45;;;3.30;;
18082;SDS011;9168;51.194;6.840;2022-08-02T09:33:31;12.10;;;4.15;;
18082;SDS011;9168;51.194;6.840;2022-08-02T09:35:59;10.65;;;4.00;;
18082;SDS011;9168;51.194;6.840;2022-08-02T09:38:27;8.73;;;3.70;;
18082;SDS011;9168;51.194;6.840;2022-08-02T09:40:54;13.27;;;4.65;;
18082;SDS011;9168;51.194;6.840;2022-08-02T09:43:33;11.43;;;3.90;;
18082;SDS011;9168;51.194;6.840;2022-08-02T09:46:09;10.68;;;4.22;;
18082;SDS011;9168;51.194;6.840;2022-08-02T09:48:47;12.15;;;4.88;;
18082;SDS011;9168;51.194;6.840;2022-08-02T09:51:18;10.18;;;4.40;;
18082;SDS011;9168;51.194;6.840;2022-08-02T09:53:51;9.80;;;4.32;;
18082;SDS011;9168;51.194;6.840;2022-08-02T09:56:19;8.68;;;4.03;;
18082;SDS011;9168;51.194;6.840;2022-08-02T09:58:47;12.75;;;3.42;;
18082;SDS011;9168;51.194;6.840;2022-08-02T10:01:18;11.15;;;3.65;;
18082;SDS011;9168;51.194;6.840;2022-08-02T10:03:55;5.72;;;2.88;;
18082;SDS011;9168;51.194;6.840;2022-08-02T10:06:23;10.40;;;3.25;;
18082;SDS011;9168;51.194;6.840;2022-08-02T10:08:50;7.35;;;2.95;;
18082;SDS011;9168;51.194;6.840;2022-08-02T10:11:18;7.15;;;3.17;;
18082;SDS011;9168;51.194;6.840;2022-08-02T10:13:46;6.28;;;2.67;;
18082;SDS011;9168;51.194;6.840;2022-08-02T10:16:14;5.88;;;3.25;;
18082;SDS011;9168;51.194;6.840;2022-08-02T10:18:43;5.63;;;2.92;;
18082;SDS011;9168;51.194;6.840;2022-08-02T10:21:11;12.32;;;3.28;;
18082;SDS011;9168;51.194;6.840;2022-08-02T10:23:41;6.43;;;2.67;;
18082;SDS011;9168;51.194;6.840;2022-08-02T10:26:12;5.97;;;2.88;;
18082;SDS011;9168;51.194;6.840;2022-08-02T10:28:42;6.80;;;2.85;;
18082;SDS011;9168;51.194;6.840;2022-08-02T10:31:13;8.70;;;2.97;;
18082;SDS011;9168;51.194;6.840;2022-08-02T10:33:50;10.88;;;3.53;;
18082;SDS011;9168;51.194;6.840;2022-08-02T10:36:18;7.70;;;2.47;;
18082;SDS011;9168;51.194;6.840;2022-08-02T10:38:47;5.10;;;2.60;;
18082;SDS011;9168;51.194;6.840;2022-08-02T10:41:20;7.07;;;2.45;;
18082;SDS011;9168;51.194;6.840;2022-08-02T10:44:06;5.55;;;2.22;;
18082;SDS011;9168;51.194;6.840;2022-08-02T10:46:33;5.30;;;2.65;;
18082;SDS011;9168;51.194;6.840;2022-08-02T10:49:07;6.60;;;2.42;;
18082;SDS011;9168;51.194;6.840;2022-08-02T10:51:53;6.20;;;2.58;;
18082;SDS011;9168;51.194;6.840;2022-08-02T10:54:22;4.05;;;2.28;;
18082;SDS011;9168;51.194;6.840;2022-08-02T10:56:50;5.07;;;2.30;;
18082;SDS011;9168;51.194;6.840;2022-08-02T10:59:22;14.45;;;2.55;;
18082;SDS011;9168;51.194;6.840;2022-08-02T11:01:50;4.25;;;2.40;;
18082;SDS011;9168;51.194;6.840;2022-08-02T11:04:26;4.32;;;2.40;;
18082;SDS011;9168;51.194;6.840;2022-08-02T11:07:07;7.85;;;2.60;;
18082;SDS011;9168;51.194;6.840;2022-08-02T11:09:38;4.88;;;2.40;;
18082;SDS011;9168;51.194;6.840;2022-08-02T11:12:05;13.88;;;2.40;;
18082;SDS011;9168;51.194;6.840;2022-08-02T11:14:35;5.95;;;2.40;;
18082;SDS011;9168;51.194;6.840;2022-08-02T11:17:09;8.00;;;2.70;;
18082;SDS011;9168;51.194;6.840;2022-08-02T11:22:41;5.72;;;2.75;;
18082;SDS011;9168;51.194;6.840;2022-08-02T11:25:28;4.75;;;2.40;;
18082;SDS011;9168;51.194;6.840;2022-08-02T11:27:57;9.77;;;3.03;;
18082;SDS011;9168;51.194;6.840;2022-08-02T11:30:25;8.68;;;2.70;;
18082;SDS011;9168;51.194;6.840;2022-08-02T11:32:54;5.20;;;2.33;;
18082;SDS011;9168;51.194;6.840;2022-08-02T11:35:22;7.82;;;2.85;;
18082;SDS011;9168;51.194;6.840;2022-08-02T11:37:57;5.03;;;2.58;;
18082;SDS011;9168;51.194;6.840;2022-08-02T11:40:38;4.30;;;2.58;;
18082;SDS011;9168;51.194;6.840;2022-08-02T11:43:14;4.93;;;2.50;;
18082;SDS011;9168;51.194;6.840;2022-08-02T11:45:42;6.45;;;2.70;;
18082;SDS011;9168;51.194;6.840;2022-08-02T11:48:09;8.02;;;2.42;;
18082;SDS011;9168;51.194;6.840;2022-08-02T11:50:37;6.70;;;2.65;;
18082;SDS011;9168;51.194;6.840;2022-08-02T11:53:11;9.43;;;2.72;;
18082;SDS011;9168;51.194;6.840;2022-08-02T11:55:39;8.63;;;2.80;;
18082;SDS011;9168;51.194;6.840;2022-08-02T11:58:06;8.73;;;3.17;;
18082;SDS011;9168;51.194;6.840;2022-08-02T12:00:35;7.53;;;2.65;;
18082;SDS011;9168;51.194;6.840;2022-08-02T12:03:03;3.90;;;2.70;;
18082;SDS011;9168;51.194;6.840;2022-08-02T12:05:30;3.00;;;2.55;;
18082;SDS011;9168;51.194;6.840;2022-08-02T12:07:59;5.20;;;2.78;;
18082;SDS011;9168;51.194;6.840;2022-08-02T12:10:26;7.38;;;2.80;;
18082;SDS011;9168;51.194;6.840;2022-08-02T12:12:53;4.88;;;2.70;;
18082;SDS011;9168;51.194;6.840;2022-08-02T12:15:28;6.97;;;2.70;;
18082;SDS011;9168;51.194;6.840;2022-08-02T12:17:57;3.67;;;2.58;;
18082;SDS011;9168;51.194;6.840;2022-08-02T12:20:41;11.52;;;3.05;;
18082;SDS011;9168;51.194;6.840;2022-08-02T12:23:10;3.08;;;2.47;;
18082;SDS011;9168;51.194;6.840;2022-08-02T12:25:37;4.97;;;2.85;;
18082;SDS011;9168;51.194;6.840;2022-08-02T12:28:14;7.20;;;2.67;;
18082;SDS011;9168;51.194;6.840;2022-08-02T12:30:52;3.45;;;2.20;;
18082;SDS011;9168;51.194;6.840;2022-08-02T12:33:21;6.57;;;2.60;;
18082;SDS011;9168;51.194;6.840;2022-08-02T12:35:48;7.93;;;2.63;;
18082;SDS011;9168;51.194;6.840;2022-08-02T12:38:17;10.90;;;2.80;;
18082;SDS011;9168;51.194;6.840;2022-08-02T12:40:44;3.47;;;2.72;;
18082;SDS011;9168;51.194;6.840;2022-08-02T12:43:17;7.25;;;3.22;;
18082;SDS011;9168;51.194;6.840;2022-08-02T12:45:48;5.43;;;2.50;;
18082;SDS011;9168;51.194;6.840;2022-08-02T12:48:28;14.35;;;2.70;;
18082;SDS011;9168;51.194;6.840;2022-08-02T12:50:58;4.57;;;2.80;;
18082;SDS011;9168;51.194;6.840;2022-08-02T12:53:31;7.00;;;3.10;;
18082;SDS011;9168;51.194;6.840;2022-08-02T12:55:59;5.07;;;2.60;;
18082;SDS011;9168;51.194;6.840;2022-08-02T12:58:26;8.18;;;2.78;;
18082;SDS011;9168;51.194;6.840;2022-08-02T13:00:55;7.30;;;2.97;;
18082;SDS011;9168;51.194;6.840;2022-08-02T13:03:23;7.80;;;2.47;;
18082;SDS011;9168;51.194;6.840;2022-08-02T13:05:50;5.28;;;2.50;;
18082;SDS011;9168;51.194;6.840;2022-08-02T13:08:17;7.80;;;3.40;;
18082;SDS011;9168;51.194;6.840;2022-08-02T13:10:45;4.85;;;2.80;;
18082;SDS011;9168;51.194;6.840;2022-08-02T13:13:12;10.40;;;2.90;;
18082;SDS011;9168;51.194;6.840;2022-08-02T13:15:39;11.05;;;2.92;;
18082;SDS011;9168;51.194;6.840;2022-08-02T13:18:07;9.00;;;2.92;;
18082;SDS011;9168;51.194;6.840;2022-08-02T13:20:35;5.82;;;2.90;;
18082;SDS011;9168;51.194;6.840;2022-08-02T13:23:02;8.40;;;2.95;;
18082;SDS011;9168;51.194;6.840;2022-08-02T13:25:29;5.82;;;3.20;;
18082;SDS011;9168;51.194;6.840;2022-08-02T13:27:57;6.88;;;2.88;;
18082;SDS011;9168;51.194;6.840;2022-08-02T13:30:24;5.95;;;2.90;;
18082;SDS011;9168;51.194;6.840;2022-08-02T13:32:51;7.78;;;3.05;;
18082;SDS011;9168;51.194;6.840;2022-08-02T13:35:18;7.97;;;2.92;;
18082;SDS011;9168;51.194;6.840;2022-08-02T13:37:45;8.23;;;3.13;;
18082;SDS011;9168;51.194;6.840;2022-08-02T13:40:12;5.43;;;3.03;;
18082;SDS011;9168;51.194;6.840;2022-08-02T13:42:39;14.63;;;3.88;;
18082;SDS011;9168;51.194;6.840;2022-08-02T13:45:08;10.65;;;3.38;;
18082;SDS011;9168;51.194;6.840;2022-08-02T13:47:37;9.00;;;3.28;;
18082;SDS011;9168;51.194;6.840;2022-08-02T13:50:05;13.68;;;3.00;;
18082;SDS011;9168;51.194;6.840;2022-08-02T13:52:32;13.63;;;2.80;;
18082;SDS011;9168;51.194;6.840;2022-08-02T13:54:59;7.60;;;3.13;;
18082;SDS011;9168;51.194;6.840;2022-08-02T13:57:26;8.93;;;3.00;;
18082;SDS011;9168;51.194;6.840;2022-08-02T13:59:53;6.13;;;3.08;;
18082;SDS011;9168;51.194;6.840;2022-08-02T14:02:21;7.55;;;3.08;;
18082;SDS011;9168;51.194;6.840;2022-08-02T14:04:48;9.95;;;3.20;;
18082;SDS011;9168;51.194;6.840;2022-08-02T14:07:15;8.77;;;3.03;;
18082;SDS011;9168;51.194;6.840;2022-08-02T14:09:42;3.33;;;3.00;;
18082;SDS011;9168;51.194;6.840;2022-08-02T14:12:09;5.53;;;2.75;;
18082;SDS011;9168;51.194;6.840;2022-08-02T14:14:36;9.18;;;3.30;;
18082;SDS011;9168;51.194;6.840;2022-08-02T14:17:03;13.18;;;3.05;;
18082;SDS011;9168;51.194;6.840;2022-08-02T14:19:32;10.52;;;3.20;;
18082;SDS011;9168;51.194;6.840;2022-08-02T14:21:59;8.02;;;3.10;;
18082;SDS011;9168;51.194;6.840;2022-08-02T14:24:26;9.38;;;3.05;;
18082;SDS011;9168;51.194;6.840;2022-08-02T14:26:53;5.22;;;3.10;;
18082;SDS011;9168;51.194;6.840;2022-08-02T14:29:20;10.18;;;3.08;;
18082;SDS011;9168;51.194;6.840;2022-08-02T14:31:47;8.15;;;3.15;;
18082;SDS011;9168;51.194;6.840;2022-08-02T14:34:14;9.05;;;3.13;;
18082;SDS011;9168;51.194;6.840;2022-08-02T14:36:42;5.57;;;2.70;;
18082;SDS011;9168;51.194;6.840;2022-08-02T14:39:09;11.50;;;3.10;;
18082;SDS011;9168;51.194;6.840;2022-08-02T14:41:36;5.00;;;2.90;;
18082;SDS011;9168;51.194;6.840;2022-08-02T14:44:03;9.93;;;2.80;;
18082;SDS011;9168;51.194;6.840;2022-08-02T14:46:32;12.30;;;3.17;;
18082;SDS011;9168;51.194;6.840;2022-08-02T14:49:00;5.75;;;2.90;;
18082;SDS011;9168;51.194;6.840;2022-08-02T14:51:28;5.15;;;3.00;;
18082;SDS011;9168;51.194;6.840;2022-08-02T14:53:56;6.22;;;2.88;;
18082;SDS011;9168;51.194;6.840;2022-08-02T14:56:23;10.20;;;2.90;;
18082;SDS011;9168;51.194;6.840;2022-08-02T14:58:51;7.85;;;2.97;;
18082;SDS011;9168;51.194;6.840;2022-08-02T15:01:18;6.93;;;2.72;;
18082;SDS011;9168;51.194;6.840;2022-08-02T15:03:45;9.02;;;3.47;;
18082;SDS011;9168;51.194;6.840;2022-08-02T15:06:12;14.43;;;3.22;;
18082;SDS011;9168;51.194;6.840;2022-08-02T15:08:39;7.78;;;3.05;;